Time;durP1;ratioP1;P1;durP2;ratioP2;P2;SDS_P1;SDS_P2;PMS_P1;PMS_P2;Temp;Humidity;BMP_temperature;BMP_pressure;BME280_temperature;BME280_humidity;BME280_pressure;Samples;Min_cycle;Max_cycle;Signal;HPM_P1;HPM_P2
2022/01/11 00:00:09;;;;;;;31.17;18.07;;;;;;;0.35;100.00;100161.14;1708921;83;21315;-76
2022/01/11 00:03:14;;;;;;;32.10;19.95;;;;;;;0.34;100.00;100167.50;1709096;84;22180;-80
2022/01/11 00:09:40;;;;;;;29.90;19.30;;;;;;;0.26;100.00;100165.37;1708806;84;21367;-77
2022/01/11 00:12:41;;;;;;;27.15;15.88;;;;;;;0.23;100.00;100170.47;1708944;84;21182;-76
2022/01/11 00:15:48;;;;;;;26.65;15.95;;;;;;;0.24;100.00;100183.47;1708409;83;21236;-77
2022/01/11 00:18:53;;;;;;;27.62;18.32;;;;;;;0.24;100.00;100176.25;1709024;84;21683;-82
2022/01/11 00:22:01;;;;;;;33.40;19.37;;;;;;;0.24;100.00;100168.19;1709372;83;21304;-77
2022/01/11 00:25:06;;;;;;;31.70;19.52;;;;;;;0.28;100.00;100173.31;1711993;84;21332;-82
2022/01/11 00:28:13;;;;;;;37.17;19.65;;;;;;;0.23;100.00;100182.58;1670854;86;21676;-77
2022/01/11 00:31:24;;;;;;;35.33;20.23;;;;;;;0.16;100.00;100184.52;1670286;84;21314;-78
2022/01/11 00:34:39;;;;;;;29.00;17.45;;;;;;;0.15;100.00;100176.94;1670879;86;21318;-79
2022/01/11 00:37:37;;;;;;;24.27;15.32;;;;;;;0.20;100.00;100184.17;1670836;86;21298;-82
2022/01/11 00:40:42;;;;;;;28.35;18.30;;;;;;;0.20;100.00;100182.83;1670653;84;21367;-82
2022/01/11 00:43:48;;;;;;;34.03;21.68;;;;;;;0.21;100.00;100197.98;1670803;86;21293;-80
2022/01/11 00:46:53;;;;;;;25.27;16.02;;;;;;;0.16;100.00;100200.16;1670539;84;21287;-77
2022/01/11 00:49:58;;;;;;;23.10;14.85;;;;;;;0.15;100.00;100197.11;1670831;86;21291;-82
2022/01/11 00:53:04;;;;;;;20.88;14.65;;;;;;;0.14;100.00;100191.81;1670820;86;21291;-82
2022/01/11 00:56:10;;;;;;;27.48;15.60;;;;;;;0.11;100.00;100196.95;1670742;84;21872;-77
2022/01/11 00:59:15;;;;;;;25.20;15.50;;;;;;;0.06;100.00;100188.85;1670806;86;21291;-78
2022/01/11 01:02:21;;;;;;;26.97;17.07;;;;;;;-0.02;100.00;100179.99;1670770;84;21848;-82
2022/01/11 01:05:26;;;;;;;23.70;15.35;;;;;;;-0.05;100.00;100181.55;1670761;84;21185;-82
2022/01/11 01:08:33;;;;;;;26.17;15.38;;;;;;;-0.11;100.00;100187.38;1670796;86;21315;-82
2022/01/11 01:11:38;;;;;;;23.35;15.45;;;;;;;-0.14;100.00;100191.62;1670056;84;21208;-83
2022/01/11 01:14:43;;;;;;;22.32;14.93;;;;;;;-0.14;100.00;100192.97;1670892;86;21217;-78
2022/01/11 01:17:48;;;;;;;24.12;16.10;;;;;;;-0.18;100.00;100192.36;1670803;86;21192;-77
2022/01/11 01:20:53;;;;;;;24.63;16.00;;;;;;;-0.20;100.00;100190.73;1670776;84;21761;-77
2022/01/11 01:23:59;;;;;;;25.92;16.35;;;;;;;-0.22;100.00;100194.89;1678566;85;21707;-77
2022/01/11 01:27:06;;;;;;;24.70;16.75;;;;;;;-0.19;100.00;100193.79;1681791;84;21228;-83
2022/01/11 01:30:13;;;;;;;23.60;14.87;;;;;;;-0.19;100.00;100193.79;1693714;84;21221;-77
2022/01/11 01:33:18;;;;;;;24.37;15.18;;;;;;;-0.19;100.00;100185.23;1693766;85;21174;-80
2022/01/11 01:36:23;;;;;;;24.02;15.18;;;;;;;-0.24;100.00;100182.52;1693564;84;21889;-77
2022/01/11 01:39:27;;;;;;;30.97;16.73;;;;;;;-0.27;100.00;100181.78;1693817;85;21210;-83
2022/01/11 01:42:34;;;;;;;26.95;16.27;;;;;;;-0.27;100.00;100185.81;1693442;84;21305;-83
2022/01/11 01:45:38;;;;;;;27.87;15.80;;;;;;;-0.26;100.00;100189.35;1693575;84;21787;-77
2022/01/11 01:48:44;;;;;;;27.00;16.52;;;;;;;-0.23;100.00;100187.80;1693562;85;21830;-82
2022/01/11 01:51:49;;;;;;;23.77;16.70;;;;;;;-0.21;100.00;100189.02;1693699;84;21332;-78
2022/01/11 01:54:54;;;;;;;26.10;16.60;;;;;;;-0.18;100.00;100182.09;1693656;85;21282;-77
2022/01/11 01:57:59;;;;;;;22.10;14.30;;;;;;;-0.15;100.00;100188.57;1693772;85;21206;-79
2022/01/11 02:01:06;;;;;;;29.57;17.02;;;;;;;-0.14;100.00;100192.52;1692040;84;21217;-77
2022/01/11 02:04:11;;;;;;;27.52;18.15;;;;;;;-0.16;100.00;100189.06;1693640;85;21324;-83
2022/01/11 02:07:16;;;;;;;25.65;16.80;;;;;;;-0.19;100.00;100206.74;1693543;84;21332;-77
2022/01/11 02:10:21;;;;;;;23.70;16.37;;;;;;;-0.20;100.00;100181.33;1693726;84;21288;-83
2022/01/11 02:13:26;;;;;;;23.87;15.40;;;;;;;-0.22;100.00;100180.59;1669334;85;21284;-82
2022/01/11 02:16:33;;;;;;;27.13;16.07;;;;;;;-0.26;100.00;100183.48;1693462;84;21689;-83
2022/01/11 02:19:39;;;;;;;22.67;15.23;;;;;;;-0.30;100.00;100180.64;1693581;85;21300;-77
2022/01/11 02:22:44;;;;;;;21.17;15.13;;;;;;;-0.33;100.00;100176.85;1692880;85;21201;-77
2022/01/11 02:25:51;;;;;;;23.65;15.32;;;;;;;-0.35;100.00;100180.12;1700819;83;21331;-81
2022/01/11 02:28:57;;;;;;;22.52;15.25;;;;;;;-0.37;100.00;100188.79;1700879;84;21287;-83
2022/01/11 02:32:01;;;;;;;22.67;14.63;;;;;;;-0.39;100.00;100196.08;1700944;83;21363;-83
2022/01/11 02:35:06;;;;;;;27.87;17.00;;;;;;;-0.40;100.00;100182.77;1700895;84;21169;-76
2022/01/11 02:38:11;;;;;;;25.45;16.90;;;;;;;-0.42;100.00;100184.72;1700838;84;21199;-77
2022/01/11 02:41:16;;;;;;;28.55;16.97;;;;;;;-0.44;100.00;100195.55;1700853;83;21323;-77
2022/01/11 02:44:23;;;;;;;25.40;17.73;;;;;;;-0.45;100.00;100181.75;1701077;84;21313;-83
2022/01/11 02:47:28;;;;;;;31.12;17.82;;;;;;;-0.45;100.00;100192.50;1700967;83;21359;-83
2022/01/11 02:50:33;;;;;;;24.75;16.75;;;;;;;-0.44;100.00;100191.52;1700921;83;21213;-77
2022/01/11 02:53:39;;;;;;;22.90;15.88;;;;;;;-0.42;100.00;100192.78;1699742;84;21940;-77
2022/01/11 02:56:45;;;;;;;23.05;14.58;;;;;;;-0.45;100.00;100201.91;1700959;83;21197;-77
2022/01/11 02:59:50;;;;;;;28.57;17.17;;;;;;;-0.45;100.00;100192.98;1700973;84;21288;-83
2022/01/11 03:02:56;;;;;;;25.12;16.77;;;;;;;-0.43;100.00;100205.33;1701034;84;21293;-83
2022/01/11 03:06:05;;;;;;;27.75;18.05;;;;;;;-0.41;100.00;100192.66;1700897;83;21323;-83
2022/01/11 03:09:10;;;;;;;26.30;16.55;;;;;;;-0.42;100.00;100200.84;1700989;84;21347;-84
2022/01/11 03:12:16;;;;;;;24.02;16.20;;;;;;;-0.46;100.00;100210.94;1700839;83;21306;-83
2022/01/11 03:15:24;;;;;;;28.20;14.68;;;;;;;-0.49;100.00;100215.66;1700963;83;21723;-78
2022/01/11 03:18:31;;;;;;;25.55;15.98;;;;;;;-0.52;100.00;100218.95;1701204;84;21214;-83
2022/01/11 03:21:36;;;;;;;26.27;16.07;;;;;;;-0.54;100.00;100224.05;1700968;83;21227;-83
2022/01/11 03:24:44;;;;;;;23.92;15.63;;;;;;;-0.55;100.00;100223.67;1699887;84;21359;-77
2022/01/11 03:27:49;;;;;;;29.85;16.77;;;;;;;-0.51;100.00;100233.25;1693793;85;21787;-83
2022/01/11 03:30:55;;;;;;;25.40;15.32;;;;;;;-0.49;100.00;100229.95;1693708;84;21351;-83
2022/01/11 03:34:05;;;;;;;25.05;16.12;;;;;;;-0.48;100.00;100235.70;1693840;85;21372;-80
2022/01/11 03:37:10;;;;;;;30.08;15.93;;;;;;;-0.51;100.00;100233.25;1693671;84;21309;-82
2022/01/11 03:40:19;;;;;;;22.15;14.18;;;;;;;-0.50;100.00;100229.58;1693464;84;21344;-76
2022/01/11 03:43:27;;;;;;;24.98;14.83;;;;;;;-0.52;100.00;100232.84;1693700;85;21292;-80
2022/01/11 03:46:33;;;;;;;22.85;14.23;;;;;;;-0.58;100.00;100226.08;1693685;84;21379;-76
2022/01/11 03:49:38;;;;;;;21.62;12.85;;;;;;;-0.58;100.00;100225.23;1693724;85;21282;-77
2022/01/11 03:52:44;;;;;;;25.90;14.85;;;;;;;-0.58;100.00;100234.63;1693579;85;21222;-80
2022/01/11 03:59:01;;;;;;;20.70;13.23;;;;;;;-0.60;100.00;100234.75;1694001;85;21297;-79
2022/01/11 04:02:07;;;;;;;23.52;14.33;;;;;;;-0.62;100.00;100234.46;1693592;84;21186;-76
2022/01/11 04:05:14;;;;;;;24.80;15.32;;;;;;;-0.62;100.00;100246.55;1693670;84;21309;-84
2022/01/11 04:08:18;;;;;;;25.08;15.65;;;;;;;-0.62;100.00;100251.92;1693668;85;21312;-83
2022/01/11 04:11:23;;;;;;;24.65;16.23;;;;;;;-0.62;100.00;100258.64;1693632;84;21335;-77
2022/01/11 04:14:29;;;;;;;23.98;15.45;;;;;;;-0.61;100.00;100252.30;1693714;85;21349;-79
2022/01/11 04:17:35;;;;;;;22.22;15.13;;;;;;;-0.60;100.00;100264.30;1669410;85;21301;-82
2022/01/11 04:20:42;;;;;;;22.20;14.95;;;;;;;-0.57;100.00;100261.86;1693704;84;21221;-82
2022/01/11 04:23:48;;;;;;;24.57;16.27;;;;;;;-0.57;100.00;100256.49;1693450;85;21320;-77
2022/01/11 04:26:54;;;;;;;28.07;17.27;;;;;;;-0.59;100.00;100259.30;1695552;84;21293;-77
2022/01/11 04:30:00;;;;;;;27.40;16.70;;;;;;;-0.60;100.00;100257.58;1689561;84;21734;-83
2022/01/11 04:33:05;;;;;;;24.87;16.90;;;;;;;-0.60;100.00;100259.41;1653645;87;21186;-77
2022/01/11 04:36:11;;;;;;;26.68;17.60;;;;;;;-0.59;100.00;100255.75;1651721;87;21382;-77
2022/01/11 04:39:18;;;;;;;29.37;19.12;;;;;;;-0.57;100.00;100266.75;1651775;87;21225;-77
2022/01/11 04:42:25;;;;;;;29.45;18.82;;;;;;;-0.55;100.00;100258.61;1628456;87;21346;-83
2022/01/11 04:45:30;;;;;;;29.70;18.65;;;;;;;-0.55;100.00;100263.49;1651860;85;21353;-77
2022/01/11 04:48:35;;;;;;;27.95;18.50;;;;;;;-0.51;100.00;100266.84;1651890;87;21313;-80
2022/01/11 04:51:41;;;;;;;27.00;17.27;;;;;;;-0.51;100.00;100261.46;1651430;85;21938;-77
2022/01/11 04:54:46;;;;;;;29.70;18.50;;;;;;;-0.56;100.00;100267.64;1650755;87;21357;-79
2022/01/11 04:57:52;;;;;;;27.95;17.87;;;;;;;-0.57;100.00;100267.23;1624025;88;21322;-83
2022/01/11 05:00:58;;;;;;;26.00;17.32;;;;;;;-0.59;100.00;100261.98;1624859;87;21344;-77
2022/01/11 05:04:05;;;;;;;28.45;16.57;;;;;;;-0.61;100.00;100260.35;1624914;88;21245;-83
2022/01/11 05:07:10;;;;;;;24.90;15.45;;;;;;;-0.64;100.00;100267.30;1625228;87;21354;-77
2022/01/11 05:10:16;;;;;;;25.32;15.05;;;;;;;-0.66;100.00;100255.78;1629682;85;21328;-84
2022/01/11 05:13:23;;;;;;;23.77;14.65;;;;;;;-0.65;100.00;100257.05;1651890;87;21332;-78
2022/01/11 05:16:30;;;;;;;21.23;13.85;;;;;;;-0.65;99.62;100258.39;1651886;85;21854;-83
2022/01/11 05:19:35;;;;;;;23.40;14.25;;;;;;;-0.68;99.30;100274.70;1651809;87;21912;-80
2022/01/11 05:22:40;;;;;;;17.95;12.58;;;;;;;-0.70;98.96;100273.11;1638996;87;21324;-83
2022/01/11 05:25:45;;;;;;;19.40;11.85;;;;;;;-0.73;98.08;100275.99;1631045;85;21323;-84
2022/01/11 05:28:50;;;;;;;18.50;12.20;;;;;;;-0.78;97.03;100274.96;1682658;84;21675;-84
2022/01/11 05:31:56;;;;;;;15.72;10.80;;;;;;;-0.83;96.60;100279.80;1652679;85;21320;-83
2022/01/11 05:35:01;;;;;;;15.50;10.93;;;;;;;-0.84;96.32;100276.73;1681748;85;21344;-80
2022/01/11 05:38:06;;;;;;;17.23;11.25;;;;;;;-0.85;96.03;100276.33;1652287;87;21190;-83
2022/01/11 05:41:11;;;;;;;19.90;11.78;;;;;;;-0.88;95.71;100278.77;1678645;84;21280;-77
2022/01/11 05:44:16;;;;;;;14.68;9.80;;;;;;;-0.93;95.20;100282.73;1677684;85;21491;-84
2022/01/11 05:47:21;;;;;;;20.02;11.75;;;;;;;-0.97;94.30;100298.66;1677965;84;21320;-77
2022/01/11 05:50:28;;;;;;;21.00;11.55;;;;;;;-1.02;94.13;100292.75;1670526;85;21686;-84
2022/01/11 05:53:33;;;;;;;19.30;12.18;;;;;;;-1.04;94.43;100296.86;1643954;85;21586;-84
2022/01/11 05:56:38;;;;;;;19.82;11.63;;;;;;;-1.07;93.98;100291.23;1648815;86;21921;-83
2022/01/11 05:59:44;;;;;;;17.67;12.50;;;;;;;-1.09;94.23;100300.33;1677578;84;21866;-76
2022/01/11 06:02:54;;;;;;;18.40;11.55;;;;;;;-1.12;94.21;100301.90;1675334;84;21191;-83
2022/01/11 06:06:00;;;;;;;18.20;10.72;;;;;;;-1.13;94.48;100305.52;1657269;85;21306;-77
2022/01/11 06:09:07;;;;;;;16.50;11.08;;;;;;;-1.20;94.55;100302.39;1678897;84;21864;-76
2022/01/11 06:12:13;;;;;;;20.27;11.40;;;;;;;-1.23;94.69;100317.84;1648498;85;21312;-77
2022/01/11 06:15:19;;;;;;;24.25;12.37;;;;;;;-1.26;94.53;100330.13;1672545;84;21173;-77
2022/01/11 06:18:25;;;;;;;22.50;12.58;;;;;;;-1.29;94.87;100336.55;1672260;84;21809;-84
2022/01/11 06:21:49;;;;;;;22.40;13.48;;;;;;;-1.33;95.39;100336.36;1649191;85;21347;-84
2022/01/11 06:24:53;;;;;;;19.35;12.15;;;;;;;-1.36;95.96;100337.92;1662620;84;21235;-77
2022/01/11 06:27:59;;;;;;;22.22;13.00;;;;;;;-1.34;96.31;100340.88;1674726;84;21212;-77
2022/01/11 06:31:04;;;;;;;21.97;11.80;;;;;;;-1.33;96.30;100339.91;1675864;84;21888;-77
2022/01/11 06:34:11;;;;;;;17.73;11.25;;;;;;;-1.32;95.94;100339.42;1676987;84;21189;-85
2022/01/11 06:37:17;;;;;;;25.05;12.63;;;;;;;-1.32;95.62;100344.34;1675033;84;21328;-76
2022/01/11 06:40:26;;;;;;;15.55;9.20;;;;;;;-1.36;95.29;100358.91;1673415;84;21598;-78
2022/01/11 06:43:37;;;;;;;28.15;12.68;;;;;;;-1.41;95.25;100358.80;1674855;84;21904;-85
2022/01/11 06:46:42;;;;;;;19.42;11.12;;;;;;;-1.46;95.23;100356.41;1657984;84;21198;-85
2022/01/11 06:49:47;;;;;;;21.25;12.35;;;;;;;-1.49;94.80;100359.80;1652864;85;21681;-86
2022/01/11 06:52:55;;;;;;;20.32;12.25;;;;;;;-1.54;94.59;100362.77;1656480;85;21963;-86
2022/01/11 06:56:08;;;;;;;23.95;12.63;;;;;;;-1.60;94.64;100365.38;1652594;84;21216;-78
2022/01/11 06:59:14;;;;;;;17.82;11.33;;;;;;;-1.64;94.90;100362.50;1642445;85;21256;-78
2022/01/11 07:02:22;;;;;;;21.50;13.20;;;;;;;-1.68;95.24;100368.16;1656931;84;21490;-78
2022/01/11 07:05:41;;;;;;;22.48;12.73;;;;;;;-1.70;95.38;100370.05;1639107;84;21238;-78
2022/01/11 07:08:47;;;;;;;18.57;12.20;;;;;;;-1.67;95.67;100367.19;1673322;84;21204;-77
2022/01/11 07:11:54;;;;;;;21.77;12.68;;;;;;;-1.67;95.65;100379.26;1673407;84;21241;-77
2022/01/11 07:15:01;;;;;;;22.35;12.43;;;;;;;-1.67;95.65;100369.88;1673763;84;21570;-78
2022/01/11 07:18:12;;;;;;;23.12;12.30;;;;;;;-1.66;95.40;100381.83;1673263;84;21311;-79
2022/01/11 07:21:23;;;;;;;18.98;11.88;;;;;;;-1.69;94.85;100390.58;1670480;84;21181;-78
2022/01/11 07:24:30;;;;;;;18.37;10.85;;;;;;;-1.71;94.45;100393.81;1652183;84;21320;-79
2022/01/11 07:27:34;;;;;;;21.55;12.13;;;;;;;-1.74;94.40;100397.56;1648808;85;22173;-77
2022/01/11 07:30:41;;;;;;;16.87;10.75;;;;;;;-1.81;94.20;100411.81;1650436;85;21357;-77
2022/01/11 07:33:46;;;;;;;16.00;10.15;;;;;;;-1.87;94.45;100412.69;1655540;84;21843;-78
2022/01/11 07:36:51;;;;;;;19.85;11.97;;;;;;;-1.88;94.84;100407.81;1673926;84;21208;-77
2022/01/11 07:39:55;;;;;;;18.45;11.38;;;;;;;-1.87;95.18;100421.59;1676996;84;21177;-79
2022/01/11 07:43:00;;;;;;;21.90;12.53;;;;;;;-1.88;95.51;100414.52;1656029;84;21356;-76
2022/01/11 07:46:09;;;;;;;20.77;12.43;;;;;;;-1.87;95.67;100418.91;1650373;85;21242;-77
2022/01/11 07:49:17;;;;;;;18.00;11.08;;;;;;;-1.84;95.58;100419.19;1654047;85;21232;-77
2022/01/11 07:52:28;;;;;;;18.60;10.80;;;;;;;-1.85;94.96;100419.66;1652327;85;21220;-78
2022/01/11 07:55:32;;;;;;;17.95;9.85;;;;;;;-1.87;94.94;100431.46;1653952;85;21733;-79
2022/01/11 08:01:59;;;;;;;17.25;10.85;;;;;;;-1.93;93.78;100432.70;1655384;85;21876;-78
2022/01/11 08:05:05;;;;;;;24.37;11.88;;;;;;;-1.94;93.54;100426.08;1666908;84;21565;-78
2022/01/11 08:08:14;;;;;;;18.45;10.00;;;;;;;-1.94;93.49;100434.12;1669086;84;21962;-77
2022/01/11 08:11:20;;;;;;;18.40;10.03;;;;;;;-1.93;93.24;100440.75;1652154;84;21216;-78
2022/01/11 08:14:26;;;;;;;17.35;9.50;;;;;;;-1.94;93.22;100447.04;1650538;85;21901;-76
2022/01/11 08:17:34;;;;;;;13.62;9.20;;;;;;;-2.01;92.84;100443.02;1640267;85;21256;-77
2022/01/11 08:20:43;;;;;;;11.22;7.92;;;;;;;-2.06;92.65;100439.28;1629906;85;21242;-77
2022/01/11 08:24:00;;;;;;;14.35;7.97;;;;;;;-2.10;92.74;100428.36;1648642;85;21538;-89
2022/01/11 08:27:08;;;;;;;11.25;7.53;;;;;;;-2.12;92.79;100435.64;1644200;85;21449;-88
2022/01/11 08:30:16;;;;;;;13.38;7.75;;;;;;;-2.10;92.65;100434.20;1644622;86;21372;-87
2022/01/11 08:33:23;;;;;;;13.68;8.73;;;;;;;-2.12;91.85;100438.77;1641716;85;22466;-87
2022/01/11 08:36:30;;;;;;;16.05;8.80;;;;;;;-2.14;91.70;100443.38;1646135;85;21201;-86
2022/01/11 08:39:39;;;;;;;14.83;9.03;;;;;;;-2.14;91.58;100438.88;1678071;84;21304;-86
2022/01/11 08:42:47;;;;;;;13.98;8.45;;;;;;;-2.13;92.14;100435.71;1679209;84;21386;-84
2022/01/11 08:45:53;;;;;;;15.75;8.40;;;;;;;-2.09;92.27;100429.22;1674854;84;21333;-84
2022/01/11 08:49:01;;;;;;;24.12;8.43;;;;;;;-2.07;92.41;100441.58;1674730;84;21590;-82
2022/01/11 08:52:07;;;;;;;16.97;8.58;;;;;;;-2.09;92.11;100426.53;1675420;84;21399;-84
2022/01/11 08:55:15;;;;;;;17.20;8.95;;;;;;;-2.14;92.02;100433.52;1677885;84;21279;-81
2022/01/11 08:58:22;;;;;;;13.68;8.93;;;;;;;-2.17;92.30;100428.33;1675726;84;21332;-78
2022/01/11 09:01:28;;;;;;;15.05;7.72;;;;;;;-2.16;92.20;100422.52;1673584;84;21632;-78
2022/01/11 09:04:35;;;;;;;15.90;8.43;;;;;;;-2.12;91.82;100418.22;1659247;85;21323;-83
2022/01/11 09:07:42;;;;;;;12.88;7.67;;;;;;;-2.10;91.47;100412.27;1675441;84;21829;-84
2022/01/11 09:10:50;;;;;;;12.80;7.95;;;;;;;-2.08;91.43;100413.03;1646582;85;21707;-83
2022/01/11 09:13:59;;;;;;;15.10;8.58;;;;;;;-2.10;91.30;100406.91;1676915;84;21180;-77
2022/01/11 09:17:05;;;;;;;14.15;7.62;;;;;;;-2.16;91.35;100393.90;1641036;86;21216;-77
2022/01/11 09:20:10;;;;;;;13.62;8.50;;;;;;;-2.16;91.49;100397.06;1640608;85;21648;-79
2022/01/11 09:23:16;;;;;;;14.85;9.60;;;;;;;-2.23;91.81;100393.87;1670567;84;21206;-77
2022/01/11 09:26:25;;;;;;;14.78;9.50;;;;;;;-2.25;91.89;100391.77;1646151;85;21169;-76
2022/01/11 09:29:32;;;;;;;15.45;9.13;;;;;;;-2.23;92.38;100393.02;1646029;85;21579;-78
2022/01/11 09:32:40;;;;;;;16.48;8.68;;;;;;;-2.19;92.46;100374.45;1650852;83;21656;-77
2022/01/11 09:35:50;;;;;;;12.00;7.33;;;;;;;-2.20;92.41;100383.45;1630186;86;21262;-85
2022/01/11 09:38:57;;;;;;;11.48;7.53;;;;;;;-2.17;92.16;100388.61;1631860;86;21301;-85
2022/01/11 09:42:02;;;;;;;12.05;7.90;;;;;;;-2.12;92.25;100393.20;1623902;86;21231;-85
2022/01/11 09:45:07;;;;;;;10.23;6.70;;;;;;;-2.03;92.44;100399.83;1629614;86;21329;-84
2022/01/11 09:48:14;;;;;;;12.58;7.60;;;;;;;-1.98;91.76;100392.36;1635181;86;21684;-86
2022/01/11 09:51:29;;;;;;;10.82;7.53;;;;;;;-2.02;91.30;100386.35;1629217;86;21452;-85
2022/01/11 09:54:35;;;;;;;11.05;7.72;;;;;;;-2.03;91.15;100386.42;1631627;86;21570;-86
2022/01/11 09:57:42;;;;;;;11.97;7.30;;;;;;;-2.06;90.63;100380.79;1630346;86;21522;-83
2022/01/11 10:01:10;;;;;;;11.00;7.33;;;;;;;-2.10;90.07;100384.12;1504412;93;21305;-86
2022/01/11 10:04:24;;;;;;;18.55;10.82;;;;;;;-2.12;90.12;100383.83;1630300;86;21330;-85
2022/01/11 10:07:40;;;;;;;15.98;9.30;;;;;;;-2.15;90.16;100378.20;1630133;86;21290;-84
2022/01/11 10:10:52;;;;;;;12.90;8.55;;;;;;;-2.15;90.09;100380.88;1631897;86;21222;-84
2022/01/11 10:13:58;;;;;;;17.05;9.70;;;;;;;-2.15;90.49;100388.91;1628930;86;21829;-84
2022/01/11 10:17:32;;;;;;;13.53;8.58;;;;;;;-2.13;90.85;100368.70;1626595;86;21223;-77
2022/01/11 10:20:41;;;;;;;15.32;9.00;;;;;;;-2.17;90.97;100368.51;1629212;86;21501;-77
2022/01/11 10:23:48;;;;;;;14.60;8.38;;;;;;;-2.23;90.82;100376.94;1629575;86;21861;-78
2022/01/11 10:26:54;;;;;;;11.65;7.58;;;;;;;-2.26;90.67;100372.61;1629056;86;21635;-78
2022/01/11 10:30:04;;;;;;;14.33;8.48;;;;;;;-2.28;90.13;100383.05;1628554;86;21920;-78
2022/01/11 10:33:15;;;;;;;15.13;8.65;;;;;;;-2.27;89.81;100364.19;1606096;84;21919;-79
2022/01/11 10:36:25;;;;;;;14.95;9.15;;;;;;;-2.22;89.49;100366.59;1655596;84;21235;-79
2022/01/11 10:39:39;;;;;;;13.28;8.85;;;;;;;-2.22;89.47;100371.95;1654384;85;21583;-79
2022/01/11 10:42:58;;;;;;;17.87;10.78;;;;;;;-2.25;89.63;100377.03;1655272;84;21849;-78
2022/01/11 10:46:07;;;;;;;14.63;9.43;;;;;;;-2.28;90.00;100365.63;1656830;84;21804;-77
2022/01/11 10:49:12;;;;;;;15.78;10.15;;;;;;;-2.23;90.33;100371.09;1657021;85;21251;-77
2022/01/11 10:52:31;;;;;;;13.48;8.55;;;;;;;-2.16;90.49;100374.28;1657324;84;21228;-78
2022/01/11 10:55:41;;;;;;;16.70;10.10;;;;;;;-2.09;90.59;100371.11;1673013;84;21853;-78
2022/01/11 10:58:47;;;;;;;16.37;9.60;;;;;;;-2.06;90.56;100366.05;1653363;84;21240;-78
2022/01/11 11:01:55;;;;;;;16.67;10.18;;;;;;;-2.01;90.66;100375.15;1655386;85;21258;-77
2022/01/11 11:05:02;;;;;;;17.32;10.38;;;;;;;-2.00;90.27;100373.70;1655858;85;21378;-77
2022/01/11 11:08:18;;;;;;;18.48;9.90;;;;;;;-1.98;89.96;100368.23;1656650;85;21184;-78
2022/01/11 11:11:25;;;;;;;22.20;9.73;;;;;;;-1.95;90.06;100372.94;1654033;84;21899;-85
2022/01/11 11:15:03;;;;;;;19.95;11.30;;;;;;;-1.89;90.18;100373.89;1648871;84;21399;-84
2022/01/11 11:18:09;;;;;;;15.55;9.65;;;;;;;-1.80;90.22;100375.99;1656327;84;21919;-81
2022/01/11 11:21:38;;;;;;;19.50;11.10;;;;;;;-1.69;89.68;100369.13;1656072;84;21224;-82
2022/01/11 11:24:46;;;;;;;13.93;8.88;;;;;;;-1.64;89.01;100373.71;1657694;84;21758;-78
2022/01/11 11:27:56;;;;;;;14.00;8.88;;;;;;;-1.63;88.47;100377.62;1658932;84;21419;-84
2022/01/11 11:31:02;;;;;;;15.60;9.33;;;;;;;-1.65;87.99;100378.67;1654884;84;21836;-85
2022/01/11 11:34:13;;;;;;;14.98;9.18;;;;;;;-1.68;87.48;100383.77;1656069;85;21451;-80
2022/01/11 11:37:47;;;;;;;15.90;9.28;;;;;;;-1.69;86.99;100381.19;1650487;85;21278;-79
2022/01/11 11:41:10;;;;;;;20.32;11.60;;;;;;;-1.74;87.22;100400.25;1631489;85;21230;-79
2022/01/11 11:44:43;;;;;;;14.80;10.15;;;;;;;-1.84;87.84;100391.89;1630709;85;21262;-84
2022/01/11 11:47:49;;;;;;;18.75;10.25;;;;;;;-1.79;87.94;100388.92;1649918;85;21265;-79
2022/01/11 11:51:04;;;;;;;16.10;9.65;;;;;;;-1.80;88.34;100386.72;1680703;82;21806;-79
2022/01/11 11:54:21;;;;;;;15.80;10.48;;;;;;;-1.81;87.75;100391.70;1642109;85;21824;-77
2022/01/11 11:57:40;;;;;;;15.58;9.18;;;;;;;-1.80;88.26;100401.47;1639182;85;21774;-79
2022/01/11 12:00:57;;;;;;;13.65;8.78;;;;;;;-1.76;88.26;100400.81;1619517;86;21278;-80
2022/01/11 12:04:44;;;;;;;17.62;9.28;;;;;;;-1.78;87.82;100418.83;1640362;85;21955;-82
2022/01/11 12:08:01;;;;;;;18.77;10.72;;;;;;;-1.81;88.30;100412.30;1654141;85;21948;-83
2022/01/11 12:11:21;;;;;;;18.95;11.15;;;;;;;-1.83;88.24;100415.09;1653519;85;21422;-77
2022/01/11 12:14:47;;;;;;;17.55;9.63;;;;;;;-1.82;88.38;100425.33;1674322;84;21311;-79
2022/01/11 12:17:52;;;;;;;14.60;9.73;;;;;;;-1.85;88.32;100417.47;1639401;85;21239;-76
2022/01/11 12:21:05;;;;;;;15.15;8.75;;;;;;;-1.89;87.84;100427.51;1672200;84;21481;-76
2022/01/11 12:24:10;;;;;;;16.83;8.33;;;;;;;-1.92;87.52;100422.36;1659807;84;21224;-77
2022/01/11 12:27:18;;;;;;;17.75;10.30;;;;;;;-1.97;87.81;100419.58;1656898;84;22200;-77
2022/01/11 12:30:26;;;;;;;15.70;9.53;;;;;;;-1.95;88.52;100438.62;1667227;84;21627;-77
2022/01/11 12:33:32;;;;;;;20.43;11.45;;;;;;;-1.89;88.44;100440.05;1642171;85;21525;-77
2022/01/11 12:36:58;;;;;;;19.12;11.12;;;;;;;-1.86;88.77;100435.38;1651534;85;21818;-78
2022/01/11 12:40:19;;;;;;;20.85;11.50;;;;;;;-1.82;88.67;100444.96;1652094;84;21913;-78
2022/01/11 12:43:46;;;;;;;24.55;13.08;;;;;;;-1.84;88.70;100428.09;1660273;84;21236;-79
2022/01/11 12:47:05;;;;;;;;;;;;;;;-1.87;88.97;100435.00;1674058;84;21229;-77
2022/01/11 12:50:16;;;;;;;30.08;14.25;;;;;;;-1.90;88.94;100433.83;1671338;84;20518;-84
2022/01/11 12:53:28;;;;;;;26.10;14.43;;;;;;;-1.93;89.19;100446.56;1640003;85;22110;-86
2022/01/11 12:56:34;;;;;;;24.37;13.53;;;;;;;-1.95;89.51;100445.80;1637733;85;21874;-85
2022/01/11 12:59:42;;;;;;;24.90;14.65;;;;;;;-1.95;89.57;100446.66;1669238;84;21919;-79
2022/01/11 13:02:48;;;;;;;35.70;17.65;;;;;;;-1.95;89.75;100448.48;1644118;85;21217;-77
2022/01/11 13:05:54;;;;;;;31.52;16.65;;;;;;;-1.93;90.28;100447.45;1664860;84;21337;-77
2022/01/11 13:09:06;;;;;;;36.50;18.37;;;;;;;-1.89;90.17;100456.14;1671642;84;21801;-78
2022/01/11 13:12:11;;;;;;;;;;;;;;;-1.92;89.32;100463.05;1670000;84;21793;-77
2022/01/11 13:15:37;;;;;;;33.95;16.32;;;;;;;-1.94;89.10;100457.77;1669368;84;20411;-77
2022/01/11 13:18:42;;;;;;;34.40;17.12;;;;;;;-2.00;89.25;100461.30;1656876;84;22250;-77
2022/01/11 13:21:50;;;;;;;40.88;19.07;;;;;;;-2.02;89.58;100462.75;1670857;84;21506;-77
2022/01/11 13:24:56;;;;;;;36.90;18.57;;;;;;;-2.01;89.39;100467.15;1644569;85;21172;-83
2022/01/11 13:28:02;;;;;;;35.30;17.17;;;;;;;-2.05;89.21;100474.98;1671824;84;21344;-77
2022/01/11 13:31:08;;;;;;;37.17;18.85;;;;;;;-2.11;89.12;100474.02;1669551;85;21845;-77
2022/01/11 13:34:16;;;;;;;35.38;18.65;;;;;;;-2.14;89.44;100483.58;1666730;84;21907;-83
2022/01/11 13:37:21;;;;;;;37.75;18.77;;;;;;;-2.13;89.72;100463.38;1624055;85;21241;-84
2022/01/11 13:40:26;;;;;;;30.65;16.93;;;;;;;-2.11;89.73;100467.33;1657133;84;21332;-84
2022/01/11 13:43:37;;;;;;;31.62;17.65;;;;;;;-2.10;89.75;100481.10;1651443;84;21403;-78
2022/01/11 13:46:49;;;;;;;37.33;20.20;;;;;;;-2.08;89.79;100479.18;1674777;85;21383;-84
2022/01/11 13:49:58;;;;;;;32.98;18.07;;;;;;;-2.06;89.82;100474.61;1652097;85;21199;-78
2022/01/11 13:53:04;;;;;;;33.83;18.70;;;;;;;-2.04;89.59;100474.02;1651252;85;21297;-82
2022/01/11 13:56:21;;;;;;;33.50;18.05;;;;;;;-2.03;89.29;100481.58;1653648;85;21848;-77
2022/01/11 13:59:30;;;;;;;33.08;19.70;;;;;;;-2.05;89.21;100480.34;1653015;85;21214;-83
2022/01/11 14:02:38;;;;;;;34.98;18.32;;;;;;;-2.09;89.51;100488.19;1652863;85;21205;-78
2022/01/11 14:05:44;;;;;;;31.97;18.52;;;;;;;-2.08;89.81;100477.84;1661167;85;21348;-78
2022/01/11 14:08:53;;;;;;;29.67;17.95;;;;;;;-2.08;89.42;100479.18;1647578;85;21997;-78
2022/01/11 14:12:06;;;;;;;36.13;19.00;;;;;;;-2.10;89.37;100473.06;1675889;84;21590;-77
2022/01/11 14:15:12;;;;;;;29.35;17.57;;;;;;;-2.09;89.15;100473.44;1674895;84;21300;-84
2022/01/11 14:18:24;;;;;;;35.30;19.52;;;;;;;-2.10;89.04;100473.92;1643274;85;21970;-80
2022/01/11 14:21:29;;;;;;;35.78;18.23;;;;;;;-2.10;89.30;100475.27;1674777;84;21409;-84
2022/01/11 14:25:03;;;;;;;28.67;16.37;;;;;;;-2.09;89.03;100474.30;1651011;84;21294;-78